Time;durP1;ratioP1;P1;durP2;ratioP2;P2;SDS_P1;SDS_P2;PMS_P1;PMS_P2;Temp;Humidity;BMP_temperature;BMP_pressure;BME280_temperature;BME280_humidity;BME280_pressure;Samples;Min_cycle;Max_cycle;Signal;HPM_P1;HPM_P2
2023/04/10 00:01:54;;;;;;;68.18;42.72;;;8.60;99.90;;;;;;5003948;28;20220;-83
2023/04/10 00:04:22;;;;;;;68.72;43.33;;;8.50;99.90;;;;;;5010143;28;20213;-84
2023/04/10 00:06:49;;;;;;;61.25;40.72;;;8.50;99.90;;;;;;5002474;28;20207;-84
2023/04/10 00:09:16;;;;;;;61.78;41.13;;;8.50;99.90;;;;;;4993502;28;20276;-83
2023/04/10 00:11:44;;;;;;;65.38;40.28;;;8.40;99.90;;;;;;5007340;28;20469;-85
2023/04/10 00:14:11;;;;;;;59.88;42.38;;;8.40;99.90;;;;;;5011871;28;20247;-82
2023/04/10 00:16:38;;;;;;;64.10;42.33;;;8.30;99.90;;;;;;5007977;28;20206;-83
2023/04/10 00:19:06;;;;;;;69.57;41.97;;;8.20;99.90;;;;;;5002502;28;20216;-83
2023/04/10 00:21:33;;;;;;;68.32;41.42;;;8.30;99.90;;;;;;4998609;28;20285;-84
2023/04/10 00:24:04;;;;;;;62.35;39.65;;;8.20;99.90;;;;;;4996673;28;20219;-86
2023/04/10 00:26:35;;;;;;;65.05;41.05;;;8.10;99.90;;;;;;5007981;28;20547;-83
2023/04/10 00:29:02;;;;;;;66.28;43.08;;;8.10;99.90;;;;;;5012288;28;20279;-83
2023/04/10 00:31:30;;;;;;;74.60;42.78;;;8.00;99.90;;;;;;5007582;28;20534;-84
2023/04/10 00:33:57;;;;;;;81.05;45.80;;;7.90;99.90;;;;;;5002175;28;20240;-85
2023/04/10 00:36:30;;;;;;;68.28;41.83;;;8.00;99.90;;;;;;5007318;28;20201;-84
2023/04/10 00:38:58;;;;;;;80.18;48.05;;;7.90;99.90;;;;;;5010178;28;20220;-84
2023/04/10 00:41:25;;;;;;;71.07;47.60;;;7.90;99.90;;;;;;5011412;28;20210;-85
2023/04/10 00:43:55;;;;;;;74.82;45.95;;;7.80;99.90;;;;;;5004265;28;20210;-84
2023/04/10 00:46:23;;;;;;;77.93;46.80;;;7.80;99.90;;;;;;5012370;28;20268;-83
2023/04/10 00:48:52;;;;;;;72.80;46.10;;;7.80;99.90;;;;;;5012381;28;20207;-84
2023/04/10 00:51:21;;;;;;;63.72;42.22;;;7.80;99.90;;;;;;5019306;28;20201;-83
2023/04/10 00:53:53;;;;;;;65.68;44.50;;;7.70;99.90;;;;;;5007032;28;20480;-84
2023/04/10 00:56:23;;;;;;;77.80;45.47;;;7.70;99.90;;;;;;5014700;28;20236;-83
2023/04/10 00:58:50;;;;;;;71.57;44.95;;;7.50;99.90;;;;;;5012201;28;20198;-84
2023/04/10 01:01:17;;;;;;;70.90;43.92;;;7.50;99.90;;;;;;4998456;28;20275;-84
2023/04/10 01:03:49;;;;;;;70.82;47.83;;;7.50;99.90;;;;;;5017638;28;20206;-84
2023/04/10 01:06:49;;;;;;;81.07;47.83;;;7.50;99.90;;;;;;4999648;28;20248;-83
2023/04/10 01:09:45;;;;;;;86.43;50.80;;;7.50;99.90;;;;;;5011977;28;20213;-82
2023/04/10 01:12:57;;;;;;;87.63;52.90;;;7.60;99.90;;;;;;5005776;28;20209;-83
2023/04/10 01:15:28;;;;;;;79.10;47.97;;;7.50;99.90;;;;;;5014690;28;20205;-84
2023/04/10 01:18:03;;;;;;;83.82;47.90;;;7.40;99.90;;;;;;5003173;28;20609;-83
2023/04/10 01:20:33;;;;;;;85.97;54.53;;;7.40;99.90;;;;;;5004508;28;20287;-83
2023/04/10 01:23:23;;;;;;;90.10;51.95;;;7.00;99.90;;;;;;5002750;28;20209;-84
2023/04/10 01:26:02;;;;;;;89.20;51.88;;;7.00;99.90;;;;;;5004002;28;20193;-83
2023/04/10 01:28:50;;;;;;;97.55;57.42;;;7.20;99.90;;;;;;4996776;28;20204;-83
2023/04/10 01:31:28;;;;;;;92.82;53.30;;;7.10;99.90;;;;;;5008227;28;20341;-83
2023/04/10 01:34:03;;;;;;;92.70;53.25;;;7.10;99.90;;;;;;5031802;28;20188;-84
2023/04/10 01:36:39;;;;;;;91.63;55.00;;;7.20;99.90;;;;;;5009864;28;20699;-84
2023/04/10 01:39:07;;;;;;;97.53;51.20;;;7.10;99.90;;;;;;5009828;28;20417;-83
2023/04/10 01:41:42;;;;;;;99.43;51.65;;;7.00;99.90;;;;;;5006161;28;20267;-84
2023/04/10 01:44:13;;;;;;;94.95;52.90;;;7.00;99.90;;;;;;5013112;28;20214;-83
2023/04/10 01:46:42;;;;;;;104.35;56.83;;;7.00;99.90;;;;;;5014779;28;20202;-84
2023/04/10 01:49:10;;;;;;;93.60;50.53;;;7.00;99.90;;;;;;4996817;28;20248;-84
2023/04/10 01:51:40;;;;;;;98.03;55.67;;;7.00;99.90;;;;;;5006295;28;20361;-84
2023/04/10 01:54:07;;;;;;;114.40;58.15;;;7.00;99.90;;;;;;5004364;28;20462;-84
2023/04/10 01:56:35;;;;;;;103.65;56.92;;;7.00;99.90;;;;;;5007110;28;20205;-83
2023/04/10 01:59:02;;;;;;;109.05;55.80;;;7.00;99.90;;;;;;5002763;28;20219;-84
2023/04/10 02:01:29;;;;;;;105.70;59.17;;;7.00;99.90;;;;;;5001803;28;20231;-83
2023/04/10 02:03:57;;;;;;;94.32;55.47;;;7.10;99.90;;;;;;5012479;28;20209;-85
2023/04/10 02:06:36;;;;;;;104.00;52.80;;;7.10;99.90;;;;;;5014041;28;20211;-85
2023/04/10 02:09:22;;;;;;;102.40;55.22;;;7.00;99.90;;;;;;5003120;28;20208;-84
2023/04/10 02:12:04;;;;;;;87.38;48.50;;;7.00;99.90;;;;;;5002235;28;20213;-83
2023/04/10 02:14:40;;;;;;;99.78;55.88;;;7.00;99.90;;;;;;5003334;28;20421;-84
2023/04/10 02:17:08;;;;;;;80.43;45.05;;;7.00;99.90;;;;;;4997097;28;20434;-84
2023/04/10 02:19:37;;;;;;;76.32;50.00;;;7.10;99.90;;;;;;5001766;28;20493;-84
2023/04/10 02:22:05;;;;;;;79.32;50.78;;;7.20;99.90;;;;;;5001399;28;20224;-84
2023/04/10 02:24:33;;;;;;;72.53;48.05;;;6.90;99.90;;;;;;4999274;28;20213;-84
2023/04/10 02:27:00;;;;;;;87.63;50.63;;;6.80;99.90;;;;;;5016098;28;20213;-83
2023/04/10 02:29:27;;;;;;;94.75;52.78;;;6.50;99.90;;;;;;4999555;28;20277;-85
2023/04/10 02:31:55;;;;;;;76.63;46.03;;;6.60;99.90;;;;;;5015470;28;20200;-84
2023/04/10 02:34:21;;;;;;;84.70;48.33;;;6.50;99.90;;;;;;5025980;28;20252;-83
2023/04/10 02:36:48;;;;;;;77.57;48.72;;;6.40;99.90;;;;;;5025486;28;20212;-82
2023/04/10 02:39:15;;;;;;;73.70;45.65;;;6.40;99.90;;;;;;5021826;28;20197;-83
2023/04/10 02:41:42;;;;;;;78.55;48.53;;;6.40;99.90;;;;;;5015161;28;20250;-82
2023/04/10 02:44:09;;;;;;;83.53;51.97;;;6.30;99.90;;;;;;5022507;28;20260;-83
2023/04/10 02:46:40;;;;;;;88.85;51.72;;;6.30;99.90;;;;;;5026531;28;20292;-83
2023/04/10 02:49:07;;;;;;;82.93;47.33;;;6.10;99.90;;;;;;5025402;28;20280;-83
2023/04/10 02:51:35;;;;;;;79.82;51.83;;;6.10;99.90;;;;;;5025692;28;20205;-84
2023/04/10 02:54:02;;;;;;;74.32;48.78;;;6.10;99.90;;;;;;5017816;28;20237;-84
2023/04/10 02:56:29;;;;;;;88.07;51.45;;;6.10;99.90;;;;;;5027487;28;20251;-83
2023/04/10 02:58:56;;;;;;;77.35;47.75;;;6.20;99.90;;;;;;5000400;28;20208;-84
2023/04/10 03:01:23;;;;;;;66.82;46.30;;;6.00;99.90;;;;;;5003260;28;20232;-83
2023/04/10 03:03:50;;;;;;;77.57;47.45;;;6.00;99.90;;;;;;5009286;28;20211;-84
2023/04/10 03:06:20;;;;;;;66.95;44.58;;;6.00;99.90;;;;;;4999576;28;20268;-84
2023/04/10 03:08:50;;;;;;;66.95;42.70;;;5.90;99.90;;;;;;5004742;28;20210;-83
2023/04/10 03:11:19;;;;;;;70.05;47.35;;;5.90;99.90;;;;;;4999235;28;20206;-84
2023/04/10 03:13:47;;;;;;;72.32;46.42;;;5.90;99.90;;;;;;5014130;28;20575;-83
2023/04/10 03:16:17;;;;;;;76.90;47.20;;;5.90;99.90;;;;;;5001281;28;20266;-84
2023/04/10 03:18:44;;;;;;;100.32;49.25;;;6.00;99.90;;;;;;5008020;28;20554;-84
2023/04/10 03:21:13;;;;;;;204.90;58.83;;;5.90;99.90;;;;;;5008415;28;20240;-84
2023/04/10 03:23:40;;;;;;;143.68;51.00;;;6.00;99.90;;;;;;5010885;28;20237;-84
2023/04/10 03:26:07;;;;;;;89.40;50.30;;;6.00;99.90;;;;;;5006590;28;20213;-84
2023/04/10 03:28:35;;;;;;;106.75;53.70;;;6.10;99.90;;;;;;5003926;28;20231;-83
2023/04/10 03:31:06;;;;;;;152.82;59.05;;;6.20;99.90;;;;;;5006118;28;20210;-85
2023/04/10 03:33:33;;;;;;;118.82;51.63;;;5.90;99.90;;;;;;5000843;28;20218;-82
2023/04/10 03:36:01;;;;;;;262.35;67.47;;;6.00;99.90;;;;;;4999174;28;20204;-83
2023/04/10 03:38:27;;;;;;;128.02;50.38;;;6.20;99.90;;;;;;5009065;28;20209;-84
2023/04/10 03:40:54;;;;;;;114.95;51.65;;;6.30;99.90;;;;;;5007170;28;20410;-83
2023/04/10 03:43:22;;;;;;;113.88;49.40;;;6.40;99.90;;;;;;5012100;28;20207;-83
2023/04/10 03:45:48;;;;;;;211.63;59.85;;;6.50;99.90;;;;;;5007988;28;20206;-84
2023/04/10 03:48:16;;;;;;;90.55;48.22;;;6.60;99.90;;;;;;5002861;28;20568;-83
2023/04/10 03:50:43;;;;;;;98.18;50.90;;;6.50;99.90;;;;;;4996848;28;20206;-82
2023/04/10 03:53:10;;;;;;;102.82;55.00;;;6.40;99.90;;;;;;5013724;28;20209;-83
2023/04/10 03:55:37;;;;;;;97.85;50.65;;;6.50;99.90;;;;;;5000986;28;20291;-83
2023/04/10 03:58:04;;;;;;;100.47;48.45;;;6.50;99.90;;;;;;5006205;28;20213;-85
2023/04/10 04:00:32;;;;;;;95.22;46.10;;;6.50;99.90;;;;;;5005353;28;20588;-82
2023/04/10 04:02:59;;;;;;;77.30;47.40;;;6.60;99.90;;;;;;5005732;28;20209;-84
2023/04/10 04:05:33;;;;;;;75.38;46.28;;;6.70;99.90;;;;;;5001071;28;20269;-84
2023/04/10 04:08:00;;;;;;;74.10;44.60;;;6.80;99.90;;;;;;5009674;28;20232;-83
2023/04/10 04:10:26;;;;;;;83.68;45.40;;;6.80;99.90;;;;;;5005167;28;20205;-82
2023/04/10 04:12:53;;;;;;;71.45;42.80;;;6.90;99.90;;;;;;5008138;28;20247;-84
2023/04/10 04:15:22;;;;;;;74.47;45.72;;;6.80;99.90;;;;;;4999774;28;20253;-83
2023/04/10 04:17:49;;;;;;;75.03;44.38;;;6.70;99.90;;;;;;5005626;28;20204;-84
2023/04/10 04:20:17;;;;;;;69.75;41.05;;;6.80;99.90;;;;;;5003569;28;20230;-83
2023/04/10 04:22:45;;;;;;;75.78;44.25;;;6.80;99.90;;;;;;5016026;28;20213;-82
2023/04/10 04:25:13;;;;;;;71.55;42.80;;;7.00;99.90;;;;;;5004050;28;20450;-82
2023/04/10 04:27:41;;;;;;;73.75;42.05;;;7.10;99.90;;;;;;5011005;28;20228;-85
2023/04/10 04:30:08;;;;;;;66.90;40.08;;;7.10;99.90;;;;;;5014530;28;20213;-84
2023/04/10 04:32:36;;;;;;;65.18;41.72;;;7.10;99.90;;;;;;5003321;28;20216;-84
2023/04/10 04:35:03;;;;;;;66.13;40.78;;;7.20;99.90;;;;;;5001155;28;20516;-84
2023/04/10 04:37:34;;;;;;;92.70;44.60;;;7.30;99.90;;;;;;5009116;28;20418;-83
2023/04/10 04:40:02;;;;;;;83.72;48.60;;;7.40;99.90;;;;;;5009130;28;20209;-83
2023/04/10 04:42:31;;;;;;;78.90;46.80;;;7.40;99.90;;;;;;5009007;28;20206;-84
2023/04/10 04:44:58;;;;;;;80.88;45.00;;;7.50;99.90;;;;;;4998470;28;20465;-84
2023/04/10 04:47:25;;;;;;;81.32;42.67;;;7.60;99.90;;;;;;5010746;28;20207;-83
2023/04/10 04:49:55;;;;;;;75.07;41.25;;;7.50;99.90;;;;;;5024296;28;20679;-84
2023/04/10 04:52:24;;;;;;;67.20;42.17;;;7.50;99.90;;;;;;5000738;28;20217;-84
2023/04/10 04:54:51;;;;;;;67.15;41.20;;;7.30;99.90;;;;;;5007589;28;20202;-85
2023/04/10 04:57:18;;;;;;;73.20;40.13;;;7.50;99.90;;;;;;5010002;28;20260;-85
2023/04/10 04:59:46;;;;;;;80.82;42.92;;;7.50;99.90;;;;;;5011860;28;20206;-83
2023/04/10 05:02:12;;;;;;;85.40;43.45;;;7.60;99.90;;;;;;5002860;28;20782;-84
2023/04/10 05:04:40;;;;;;;84.45;44.17;;;7.70;99.90;;;;;;5004906;28;20223;-83
2023/04/10 05:07:10;;;;;;;86.95;43.00;;;8.10;99.90;;;;;;5011623;28;20213;-84
2023/04/10 05:09:37;;;;;;;74.93;44.03;;;8.10;99.90;;;;;;5011962;28;20251;-84
2023/04/10 05:12:04;;;;;;;89.03;43.85;;;8.00;99.90;;;;;;5000190;28;20229;-85
2023/04/10 05:14:31;;;;;;;142.02;56.55;;;8.20;99.90;;;;;;4996254;28;20213;-84
2023/04/10 05:16:58;;;;;;;99.82;49.10;;;8.20;99.90;;;;;;5002826;28;20214;-84
2023/04/10 05:19:29;;;;;;;108.28;54.60;;;8.00;99.90;;;;;;5009137;28;20573;-85
2023/04/10 05:21:56;;;;;;;100.47;46.97;;;8.40;99.90;;;;;;5010154;28;20255;-84
2023/04/10 05:24:23;;;;;;;149.63;50.85;;;8.50;99.90;;;;;;5005387;28;20208;-85
2023/04/10 05:26:50;;;;;;;135.77;52.28;;;8.50;99.90;;;;;;5005571;28;20256;-85
2023/04/10 05:29:17;;;;;;;105.32;48.78;;;8.80;99.90;;;;;;5011705;28;20271;-84
2023/04/10 05:31:45;;;;;;;107.72;47.30;;;8.80;99.90;;;;;;5009435;28;20213;-85
2023/04/10 05:34:13;;;;;;;82.15;45.85;;;9.00;99.90;;;;;;5009234;28;20259;-84
2023/04/10 05:36:40;;;;;;;163.95;52.20;;;8.70;99.90;;;;;;5013485;28;20213;-83
2023/04/10 05:39:07;;;;;;;115.88;48.25;;;8.50;99.90;;;;;;5006783;28;20209;-84
2023/04/10 05:41:34;;;;;;;94.50;42.70;;;8.50;99.90;;;;;;4993033;28;20221;-83
2023/04/10 05:44:02;;;;;;;178.27;51.08;;;8.60;99.90;;;;;;4999981;28;20219;-83
2023/04/10 05:46:32;;;;;;;89.43;43.80;;;8.80;99.90;;;;;;5006339;28;20211;-82
2023/04/10 05:49:00;;;;;;;131.40;39.72;;;8.90;99.90;;;;;;5018113;28;20207;-82
2023/04/10 05:51:29;;;;;;;103.00;44.55;;;9.10;99.90;;;;;;5023439;28;20205;-84
2023/04/10 05:53:56;;;;;;;156.38;42.88;;;9.10;99.90;;;;;;5019088;28;20209;-84
2023/04/10 05:56:23;;;;;;;136.27;44.72;;;9.10;99.90;;;;;;5004599;28;20233;-84
2023/04/10 05:58:50;;;;;;;231.55;54.33;;;8.80;99.90;;;;;;5004391;28;20205;-84
2023/04/10 06:01:18;;;;;;;69.20;39.25;;;8.90;99.90;;;;;;5002743;28;20235;-84
2023/04/10 06:03:44;;;;;;;94.28;43.65;;;8.80;99.90;;;;;;5000187;28;20209;-85
2023/04/10 06:06:12;;;;;;;85.50;40.45;;;8.90;99.90;;;;;;5004552;28;20213;-84
2023/04/10 06:08:40;;;;;;;86.18;44.20;;;9.00;99.90;;;;;;5012633;28;20220;-84
2023/04/10 06:11:07;;;;;;;116.82;41.67;;;9.30;99.90;;;;;;5012381;28;20237;-84
2023/04/10 06:13:34;;;;;;;106.88;44.25;;;9.20;99.90;;;;;;5010237;28;20209;-83
2023/04/10 06:16:03;;;;;;;88.00;39.47;;;9.20;99.90;;;;;;5007636;28;20256;-84
2023/04/10 06:18:30;;;;;;;86.75;40.13;;;9.20;99.90;;;;;;5007404;28;20278;-83
2023/04/10 06:20:59;;;;;;;78.32;39.33;;;9.40;99.90;;;;;;5018829;28;20225;-84
2023/04/10 06:23:26;;;;;;;82.57;40.25;;;9.30;99.90;;;;;;5004567;28;20409;-84
2023/04/10 06:25:54;;;;;;;85.65;39.42;;;9.40;99.90;;;;;;5002246;28;20205;-84
2023/04/10 06:28:21;;;;;;;80.00;42.22;;;9.50;99.90;;;;;;4998947;28;20213;-84
2023/04/10 06:30:50;;;;;;;81.78;40.38;;;9.50;99.90;;;;;;4999402;28;20236;-82
2023/04/10 06:33:17;;;;;;;169.82;50.53;;;9.90;99.90;;;;;;4996282;28;20222;-82
2023/04/10 06:35:44;;;;;;;79.28;44.75;;;10.20;99.90;;;;;;5010239;28;20264;-83
2023/04/10 06:38:11;;;;;;;80.90;41.20;;;10.40;99.90;;;;;;5008159;28;20391;-82
2023/04/10 06:40:40;;;;;;;136.45;48.33;;;10.20;99.90;;;;;;5010214;28;20251;-83
2023/04/10 06:43:07;;;;;;;69.95;35.05;;;10.20;99.90;;;;;;5009077;28;20383;-83
2023/04/10 06:45:34;;;;;;;76.25;36.30;;;9.70;99.90;;;;;;5006724;28;20247;-84
2023/04/10 06:48:01;;;;;;;74.90;39.15;;;9.50;99.90;;;;;;5008506;28;20413;-83
2023/04/10 06:50:30;;;;;;;59.08;34.95;;;9.40;99.90;;;;;;5001032;28;20213;-83
2023/04/10 06:52:59;;;;;;;60.67;33.42;;;9.60;99.90;;;;;;5006495;28;20204;-83
2023/04/10 06:55:28;;;;;;;57.13;35.65;;;9.70;99.90;;;;;;5001378;28;20213;-84
2023/04/10 06:57:55;;;;;;;71.40;34.75;;;9.60;99.90;;;;;;5013869;28;20248;-84
2023/04/10 07:00:22;;;;;;;67.40;36.72;;;9.50;99.90;;;;;;5011794;28;20245;-84
2023/04/10 07:02:49;;;;;;;64.82;34.33;;;9.50;99.90;;;;;;5007117;28;20336;-84
2023/04/10 07:05:18;;;;;;;72.00;32.42;;;9.50;99.90;;;;;;5002634;28;20198;-83
2023/04/10 07:07:46;;;;;;;55.03;34.00;;;9.20;99.90;;;;;;5006867;28;20486;-83
2023/04/10 07:10:13;;;;;;;47.58;31.60;;;9.00;99.90;;;;;;5011733;28;20449;-85
2023/04/10 07:12:43;;;;;;;46.58;32.33;;;9.20;99.90;;;;;;5015908;28;20334;-84
2023/04/10 07:15:11;;;;;;;52.65;31.67;;;9.10;99.90;;;;;;5017593;28;20195;-84
2023/04/10 07:17:38;;;;;;;57.45;38.60;;;9.30;99.90;;;;;;5028177;28;20190;-83
2023/04/10 07:20:06;;;;;;;53.80;35.55;;;9.80;99.90;;;;;;5018377;28;20266;-83
2023/04/10 07:22:33;;;;;;;49.65;33.20;;;9.80;99.90;;;;;;5017996;28;20258;-82
2023/04/10 07:25:00;;;;;;;54.45;33.72;;;10.00;99.90;;;;;;5007755;28;20198;-82
2023/04/10 07:27:27;;;;;;;49.40;31.20;;;9.90;99.90;;;;;;5011512;28;20214;-85
2023/04/10 07:29:55;;;;;;;51.90;34.63;;;10.20;99.90;;;;;;5009359;28;20244;-83
2023/04/10 07:32:23;;;;;;;42.25;31.00;;;10.40;99.90;;;;;;5005575;28;20226;-83
2023/04/10 07:34:52;;;;;;;42.33;29.15;;;10.90;99.90;;;;;;5016988;28;20257;-83
2023/04/10 07:37:19;;;;;;;43.33;28.08;;;11.40;99.90;;;;;;5002068;28;20215;-83
2023/04/10 07:39:47;;;;;;;45.70;28.60;;;11.60;99.90;;;;;;5014371;28;20215;-83
2023/04/10 07:42:14;;;;;;;44.55;29.15;;;11.50;99.90;;;;;;5011706;28;20228;-84
2023/04/10 07:44:41;;;;;;;43.65;28.75;;;11.00;99.90;;;;;;5014101;28;20236;-84
2023/04/10 07:47:07;;;;;;;51.70;30.83;;;11.20;99.90;;;;;;5013518;28;20219;-83
2023/04/10 07:49:34;;;;;;;45.90;31.40;;;11.70;99.90;;;;;;5004598;28;20257;-84
2023/04/10 07:52:05;;;;;;;48.83;31.38;;;12.00;99.90;;;;;;5004707;28;20239;-83
2023/04/10 07:54:33;;;;;;;52.13;32.08;;;12.10;99.90;;;;;;5007528;28;20229;-83
2023/04/10 07:57:00;;;;;;;42.38;29.60;;;12.40;99.90;;;;;;5002080;28;20203;-82
2023/04/10 07:59:30;;;;;;;44.10;30.35;;;12.50;99.90;;;;;;5001025;28;20222;-84
2023/04/10 08:01:57;;;;;;;46.90;31.52;;;12.60;99.90;;;;;;5002667;28;20251;-83
2023/04/10 08:04:25;;;;;;;42.60;29.83;;;12.60;99.90;;;;;;5012390;28;20270;-83
2023/04/10 08:06:53;;;;;;;42.55;28.98;;;12.90;99.90;;;;;;4998800;28;20220;-84
2023/04/10 08:09:20;;;;;;;44.20;29.75;;;13.00;99.90;;;;;;5004368;28;20205;-86
2023/04/10 08:11:49;;;;;;;42.00;27.88;;;13.20;99.90;;;;;;5012388;28;20200;-85
2023/04/10 08:14:16;;;;;;;45.63;28.83;;;13.20;99.90;;;;;;5002147;28;20242;-85
2023/04/10 08:16:44;;;;;;;53.22;30.92;;;13.00;99.90;;;;;;5006568;28;20204;-85
2023/04/10 08:19:11;;;;;;;40.58;27.45;;;13.20;99.90;;;;;;4997051;28;20273;-84
2023/04/10 08:21:38;;;;;;;47.55;30.95;;;13.70;99.90;;;;;;5009096;28;20556;-84
2023/04/10 08:24:05;;;;;;;45.60;29.00;;;14.10;99.90;;;;;;5008101;28;20260;-84
2023/04/10 08:26:32;;;;;;;42.70;26.52;;;15.20;99.90;;;;;;5012467;28;20260;-83
2023/04/10 08:28:59;;;;;;;40.45;26.58;;;16.20;99.90;;;;;;5014655;28;20212;-82
2023/04/10 08:31:28;;;;;;;37.25;25.17;;;15.90;99.90;;;;;;5023685;28;20198;-83
2023/04/10 08:33:55;;;;;;;42.00;26.92;;;15.30;99.90;;;;;;5029264;28;20201;-84
2023/04/10 08:36:23;;;;;;;31.88;22.95;;;15.00;99.90;;;;;;5016667;28;20206;-83
2023/04/10 08:38:50;;;;;;;36.10;24.23;;;14.50;99.90;;;;;;5009360;28;20505;-85
2023/04/10 08:41:18;;;;;;;37.60;25.45;;;14.20;99.90;;;;;;5014895;28;20216;-85
2023/04/10 08:43:46;;;;;;;31.73;23.48;;;13.90;99.90;;;;;;5003099;28;20284;-84
2023/04/10 08:46:13;;;;;;;35.15;22.83;;;13.80;99.90;;;;;;5000851;28;20206;-84
2023/04/10 08:48:57;;;;;;;33.65;24.05;;;13.80;99.90;;;;;;5011162;28;20198;-83
2023/04/10 08:51:31;;;;;;;35.08;24.67;;;14.90;99.90;;;;;;5005939;28;20198;-83
2023/04/10 08:54:05;;;;;;;31.35;23.73;;;15.50;99.90;;;;;;5017629;28;20194;-83
2023/04/10 08:56:38;;;;;;;31.45;22.35;;;15.50;99.90;;;;;;5002231;28;20548;-83
2023/04/10 08:59:07;;;;;;;36.13;24.73;;;15.40;99.90;;;;;;5006835;28;20213;-84
2023/04/10 09:01:35;;;;;;;33.00;24.30;;;15.50;99.90;;;;;;5009604;28;20251;-82
2023/04/10 09:04:02;;;;;;;32.80;24.77;;;15.70;99.90;;;;;;5007166;28;20455;-84
2023/04/10 09:06:30;;;;;;;30.27;22.87;;;16.00;99.90;;;;;;5001452;28;20447;-84
2023/04/10 09:08:58;;;;;;;28.67;23.50;;;16.30;99.90;;;;;;5013692;28;20448;-84
2023/04/10 09:11:59;;;;;;;28.00;21.50;;;16.80;99.90;;;;;;5010111;28;20424;-82
2023/04/10 09:14:32;;;;;;;29.80;22.80;;;17.00;99.90;;;;;;4976180;28;20477;-84
2023/04/10 09:17:19;;;;;;;32.40;22.50;;;16.70;99.90;;;;;;5000579;28;20432;-84
2023/04/10 09:19:51;;;;;;;30.30;22.87;;;16.30;99.90;;;;;;5002302;28;20665;-84
2023/04/10 09:22:30;;;;;;;28.97;21.77;;;16.10;99.90;;;;;;4998353;28;20433;-83
2023/04/10 09:24:58;;;;;;;28.47;21.83;;;16.10;99.90;;;;;;4994864;28;20977;-82
2023/04/10 09:27:31;;;;;;;29.40;20.47;;;16.00;99.90;;;;;;5003274;28;20448;-83
2023/04/10 09:29:58;;;;;;;29.70;22.37;;;16.20;99.90;;;;;;5008862;28;20456;-83
2023/04/10 09:32:47;;;;;;;28.03;21.90;;;17.10;99.90;;;;;;5009844;28;20490;-83
2023/04/10 09:35:15;;;;;;;28.37;22.20;;;18.00;99.90;;;;;;5011334;28;20409;-83
2023/04/10 09:37:45;;;;;;;27.97;20.20;;;18.90;99.90;;;;;;5008087;28;20418;-83
2023/04/10 09:40:25;;;;;;;32.83;20.90;;;18.60;99.90;;;;;;5007049;28;20421;-81
2023/04/10 09:42:56;;;;;;;35.47;23.70;;;19.00;99.90;;;;;;5001040;28;20479;-82
2023/04/10 09:45:22;;;;;;;30.37;20.90;;;18.10;99.90;;;;;;4997615;28;20418;-81
2023/04/10 09:48:04;;;;;;;31.00;23.90;;;18.90;99.90;;;;;;5003160;28;20427;-83
2023/04/10 09:50:36;;;;;;;34.47;23.27;;;18.90;99.90;;;;;;5007825;28;20417;-83
2023/04/10 09:53:14;;;;;;;29.70;22.30;;;18.30;99.90;;;;;;4999867;28;20982;-82
2023/04/10 09:55:42;;;;;;;28.47;21.77;;;18.10;99.90;;;;;;5005027;28;20432;-84
2023/04/10 09:58:09;;;;;;;30.67;23.30;;;17.90;99.90;;;;;;5011529;28;20474;-82
2023/04/10 10:00:41;;;;;;;28.97;21.33;;;17.70;99.90;;;;;;4999964;28;20418;-81
2023/04/10 10:03:13;;;;;;;32.47;21.80;;;17.40;99.90;;;;;;5004332;28;20406;-81
2023/04/10 10:05:46;;;;;;;30.97;23.40;;;17.60;99.90;;;;;;5001594;28;20443;-83
2023/04/10 10:08:14;;;;;;;25.73;20.50;;;17.60;99.90;;;;;;5007134;28;20742;-83
2023/04/10 10:10:52;;;;;;;30.27;23.47;;;17.70;99.90;;;;;;5002778;28;20453;-83
2023/04/10 10:13:26;;;;;;;33.87;23.10;;;17.80;99.90;;;;;;5009353;28;20449;-82
2023/04/10 10:15:56;;;;;;;26.30;21.17;;;18.10;99.90;;;;;;5010350;28;21103;-84
2023/04/10 10:18:42;;;;;;;29.43;21.23;;;18.10;99.90;;;;;;5000622;28;20631;-84
2023/04/10 10:21:09;;;;;;;35.27;24.43;;;17.90;99.90;;;;;;5008546;28;21043;-82
2023/04/10 10:23:37;;;;;;;34.60;20.80;;;17.90;99.90;;;;;;5015627;28;20454;-81
2023/04/10 10:26:05;;;;;;;31.87;22.07;;;18.00;99.90;;;;;;5007667;28;20496;-83
2023/04/10 10:28:34;;;;;;;25.13;21.00;;;17.90;99.90;;;;;;5001772;28;20422;-82
2023/04/10 10:31:02;;;;;;;25.70;19.77;;;17.30;99.90;;;;;;5005391;28;20489;-82
2023/04/10 10:33:31;;;;;;;37.33;22.87;;;17.00;99.90;;;;;;5011758;28;20830;-83
2023/04/10 10:36:03;;;;;;;36.53;23.80;;;17.00;99.90;;;;;;4995004;28;20441;-82
2023/04/10 10:38:31;;;;;;;28.60;22.10;;;16.80;99.90;;;;;;4998268;28;20435;-81
2023/04/10 10:41:27;;;;;;;34.10;24.03;;;16.60;99.90;;;;;;5003249;28;20428;-82
2023/04/10 10:44:15;;;;;;;26.50;22.93;;;16.30;99.90;;;;;;4993025;28;20456;-82
2023/04/10 10:46:57;;;;;;;28.60;22.20;;;15.80;99.90;;;;;;5005079;28;20455;-82
2023/04/10 10:49:50;;;;;;;29.10;20.70;;;15.60;99.90;;;;;;4996377;28;20431;-81
2023/04/10 10:52:42;;;;;;;26.87;22.33;;;15.60;99.90;;;;;;4999315;28;20467;-82
2023/04/10 10:55:21;;;;;;;27.50;22.07;;;16.10;99.90;;;;;;5019556;28;20439;-83
2023/04/10 10:57:54;;;;;;;27.67;21.33;;;16.40;99.90;;;;;;5004268;28;20459;-83
2023/04/10 11:00:45;;;;;;;29.77;21.47;;;15.90;99.90;;;;;;4990559;28;20506;-82
2023/04/10 11:03:12;;;;;;;32.17;21.57;;;15.20;99.90;;;;;;4998857;28;20460;-82
2023/04/10 11:05:57;;;;;;;30.37;20.30;;;15.10;99.90;;;;;;4998699;28;20441;-82
2023/04/10 11:08:44;;;;;;;29.57;21.70;;;15.40;99.90;;;;;;4999858;28;20489;-82
2023/04/10 11:11:14;;;;;;;25.90;21.40;;;15.60;99.90;;;;;;4999028;28;20743;-82
2023/04/10 11:14:05;;;;;;;29.97;20.40;;;15.70;99.90;;;;;;4998032;28;20487;-83
2023/04/10 11:16:33;;;;;;;27.47;20.43;;;15.60;99.90;;;;;;5000156;28;20421;-81
2023/04/10 11:19:03;;;;;;;30.50;22.37;;;15.30;99.90;;;;;;5003363;28;20847;-81
2023/04/10 11:22:09;;;;;;;37.40;21.50;;;15.30;99.90;;;;;;5001370;28;20447;-82
2023/04/10 11:25:09;;;;;;;31.13;21.23;;;15.70;99.90;;;;;;5011961;28;20805;-82
2023/04/10 11:27:47;;;;;;;34.60;23.57;;;16.20;99.90;;;;;;5008645;28;20734;-82
2023/04/10 11:30:35;;;;;;;32.73;23.73;;;16.60;99.90;;;;;;5011878;28;20502;-81
2023/04/10 11:33:04;;;;;;;32.37;21.63;;;16.50;99.90;;;;;;5008845;28;20457;-82
2023/04/10 11:35:32;;;;;;;30.27;22.43;;;16.60;99.90;;;;;;5010848;28;20521;-81
2023/04/10 11:38:17;;;;;;;27.90;22.67;;;15.80;99.90;;;;;;5011022;28;20414;-81
2023/04/10 11:41:02;;;;;;;29.03;21.07;;;15.40;99.90;;;;;;5005484;28;20443;-81
2023/04/10 11:43:33;;;;;;;27.43;20.40;;;15.30;99.90;;;;;;5010671;28;20434;-83
2023/04/10 11:46:04;;;;;;;30.53;20.67;;;15.40;99.90;;;;;;5013243;28;20414;-80
2023/04/10 11:48:31;;;;;;;27.27;19.93;;;15.80;99.90;;;;;;5011515;28;20426;-82
2023/04/10 11:51:05;;;;;;;34.37;22.60;;;15.60;99.90;;;;;;5023042;28;20434;-82
2023/04/10 11:53:37;;;;;;;30.10;20.67;;;15.60;99.90;;;;;;5028542;28;20434;-81
2023/04/10 11:56:06;;;;;;;25.40;20.63;;;15.40;99.90;;;;;;5015006;28;20426;-81
2023/04/10 11:58:35;;;;;;;32.43;20.87;;;15.60;99.90;;;;;;5010020;28;20455;-83
2023/04/10 12:01:03;;;;;;;28.00;21.23;;;15.80;99.90;;;;;;4995707;28;20842;-82
2023/04/10 12:03:39;;;;;;;26.87;18.93;;;15.90;99.90;;;;;;4997105;28;21015;-82
2023/04/10 12:06:11;;;;;;;26.10;20.50;;;16.20;99.90;;;;;;4995025;28;20413;-82
2023/04/10 12:08:40;;;;;;;34.47;22.70;;;16.50;99.90;;;;;;4992253;28;20477;-81
2023/04/10 12:11:14;;;;;;;32.87;20.20;;;16.50;99.90;;;;;;5000150;28;20815;-81
2023/04/10 12:13:46;;;;;;;27.30;21.03;;;16.70;99.90;;;;;;5004161;28;20445;-81
2023/04/10 12:16:15;;;;;;;29.37;19.80;;;17.10;99.90;;;;;;5010965;28;20454;-83
2023/04/10 12:18:44;;;;;;;30.83;20.17;;;17.50;99.90;;;;;;5003601;28;20461;-81
2023/04/10 12:21:11;;;;;;;24.83;18.90;;;17.30;99.90;;;;;;4987083;28;20449;-81
2023/04/10 12:23:38;;;;;;;28.83;22.93;;;17.10;99.90;;;;;;4995949;28;21083;-82
2023/04/10 12:26:08;;;;;;;27.53;20.20;;;17.10;99.90;;;;;;5005282;28;20434;-82
2023/04/10 12:28:36;;;;;;;31.50;21.73;;;17.10;99.90;;;;;;4998636;28;20418;-82
2023/04/10 12:31:04;;;;;;;25.27;19.20;;;17.00;99.90;;;;;;4994128;28;20427;-81
2023/04/10 12:33:31;;;;;;;28.33;19.03;;;17.20;99.90;;;;;;5002955;28;20461;-83
2023/04/10 12:35:58;;;;;;;34.17;23.00;;;17.30;99.90;;;;;;4998387;28;20439;-80
2023/04/10 12:38:36;;;;;;;53.63;29.03;;;17.10;99.90;;;;;;4995627;28;20490;-81
2023/04/10 12:41:03;;;;;;;22.93;18.50;;;16.80;99.90;;;;;;4996429;28;20417;-83
2023/04/10 12:43:35;;;;;;;35.10;22.20;;;16.90;99.90;;;;;;4994439;28;20451;-83
2023/04/10 12:46:02;;;;;;;27.07;18.53;;;17.00;99.90;;;;;;4996532;28;20452;-82
2023/04/10 12:48:30;;;;;;;34.97;22.37;;;17.10;99.90;;;;;;5000526;28;20518;-82